createdAt,value
2022-11-13T00:00:46.627Z,6.80
2022-11-13T00:05:07.249Z,8.23
2022-11-13T00:09:29.038Z,6.97
2022-11-13T00:13:50.115Z,7.73
2022-11-13T00:18:11.067Z,7.73
2022-11-13T00:22:31.620Z,9.03
2022-11-13T00:27:04.125Z,11.97
2022-11-13T00:31:50.390Z,12.73
2022-11-13T00:36:15.500Z,11.90
2022-11-13T00:40:36.012Z,11.17
2022-11-13T00:44:56.752Z,11.97
2022-11-13T00:49:17.917Z,13.30
2022-11-13T00:53:38.679Z,11.57
2022-11-13T00:58:20.635Z,11.93
2022-11-13T01:02:41.817Z,10.70
2022-11-13T01:07:09.797Z,13.37
2022-11-13T01:11:30.985Z,13.40
2022-11-13T01:16:09.816Z,16.90
2022-11-13T01:21:02.218Z,15.63
2022-11-13T01:25:23.026Z,17.53
2022-11-13T01:29:43.365Z,17.63
2022-11-13T01:34:06.392Z,19.17
2022-11-13T01:38:53.420Z,20.60
2022-11-13T01:43:27.231Z,21.63
2022-11-13T01:47:48.124Z,21.53
2022-11-13T01:52:29.470Z,17.80
2022-11-13T01:57:16.049Z,21.53
2022-11-13T02:01:41.900Z,24.13
2022-11-13T02:06:02.790Z,27.30
2022-11-13T02:10:23.329Z,27.50
2022-11-13T02:14:58.675Z,25.47
2022-11-13T02:19:33.085Z,25.43
2022-11-13T02:24:21.098Z,32.07
2022-11-13T02:28:41.706Z,21.50
2022-11-13T02:33:33.933Z,30.50
2022-11-13T02:37:56.387Z,34.87
2022-11-13T02:42:16.458Z,36.03
2022-11-13T02:46:56.425Z,37.83
2022-11-13T02:51:19.026Z,33.60
2022-11-13T02:55:39.710Z,41.53
2022-11-13T03:05:11.910Z,52.20
2022-11-13T03:09:52.323Z,58.50
2022-11-13T03:14:13.187Z,50.60
2022-11-13T03:18:35.601Z,51.03
2022-11-13T03:22:56.041Z,52.67
2022-11-13T03:27:20.022Z,47.20
2022-11-13T03:32:40.336Z,56.50
2022-11-13T03:37:01.952Z,56.27
2022-11-13T03:41:31.453Z,78.13
2022-11-13T03:45:52.031Z,224.70
2022-11-13T03:50:34.129Z,444.87
2022-11-13T03:55:00.564Z,216.47
2022-11-13T03:59:20.935Z,97.90
2022-11-13T04:03:41.309Z,88.40
2022-11-13T04:08:01.448Z,46.57
2022-11-13T04:13:12.052Z,74.80
2022-11-13T04:17:33.033Z,49.20
2022-11-13T04:21:53.552Z,112.63
2022-11-13T04:26:13.961Z,109.83
2022-11-13T04:30:34.696Z,133.47
2022-11-13T04:34:55.193Z,143.10
2022-11-13T04:39:15.638Z,112.40
2022-11-13T04:43:36.189Z,193.73
2022-11-13T04:47:56.761Z,77.27
2022-11-13T04:52:17.635Z,105.30
2022-11-13T04:56:51.722Z,231.07
2022-11-13T05:07:32.295Z,349.13
2022-11-13T05:11:52.809Z,270.07
2022-11-13T05:16:14.772Z,386.53
2022-11-13T05:20:38.201Z,315.83
2022-11-13T05:24:58.424Z,502.40
2022-11-13T05:29:19.354Z,446.07
2022-11-13T05:33:40.674Z,159.00
2022-11-13T05:38:02.292Z,464.33
2022-11-13T05:42:23.181Z,237.63
2022-11-13T05:46:43.675Z,439.27
2022-11-13T05:51:09.282Z,324.60
2022-11-13T05:55:32.840Z,338.40
2022-11-13T05:59:52.955Z,538.17
2022-11-13T06:04:13.412Z,403.20
2022-11-13T06:08:34.195Z,248.53
2022-11-13T06:12:55.243Z,565.97
2022-11-13T06:17:15.561Z,372.60
2022-11-13T06:21:52.378Z,451.10
2022-11-13T06:26:15.366Z,435.93
2022-11-13T06:36:31.342Z,348.60
2022-11-13T06:41:17.893Z,472.30
2022-11-13T06:45:38.186Z,387.67
2022-11-13T06:50:00.050Z,649.03
2022-11-13T06:54:29.571Z,403.47
2022-11-13T06:58:50.059Z,544.00
2022-11-13T07:03:18.596Z,247.70
2022-11-13T07:08:29.122Z,438.43
2022-11-13T07:12:54.514Z,421.60
2022-11-13T07:17:15.272Z,381.10
2022-11-13T07:21:35.681Z,242.37
2022-11-13T07:26:31.046Z,503.80
2022-11-13T07:31:22.079Z,729.23
2022-11-13T07:35:58.971Z,517.20
2022-11-13T07:40:19.523Z,446.83
2022-11-13T07:44:54.124Z,472.47
2022-11-13T07:49:18.906Z,624.30
2022-11-13T07:53:40.444Z,213.87
2022-11-13T07:58:01.807Z,357.37
2022-11-13T08:02:26.354Z,195.73
2022-11-13T08:06:47.394Z,524.10
2022-11-13T08:11:14.003Z,484.20
2022-11-13T08:16:00.921Z,389.57
2022-11-13T08:20:31.352Z,405.00
2022-11-13T08:24:53.845Z,457.20
2022-11-13T08:29:37.454Z,431.83
2022-11-13T08:34:48.964Z,278.07
2022-11-13T08:39:10.232Z,407.20
2022-11-13T08:43:30.935Z,135.83
2022-11-13T08:48:22.023Z,82.17
2022-11-13T08:52:58.077Z,244.17
2022-11-13T08:58:14.712Z,211.10
2022-11-13T09:02:35.122Z,178.77
2022-11-13T09:06:55.794Z,138.20
2022-11-13T09:11:17.546Z,281.73
2022-11-13T09:16:27.849Z,332.17
2022-11-13T09:20:48.092Z,128.20
2022-11-13T09:25:17.849Z,83.33
2022-11-13T09:30:04.214Z,564.43
2022-11-13T09:34:34.789Z,56.97
2022-11-13T09:38:55.794Z,88.30
2022-11-13T09:43:59.734Z,44.53
2022-11-13T09:48:55.625Z,39.53
2022-11-13T09:53:17.057Z,41.13
2022-11-13T09:58:36.413Z,45.63
2022-11-13T10:04:01.858Z,42.07
2022-11-13T10:09:12.996Z,40.77
2022-11-13T10:14:40.289Z,44.23
2022-11-13T10:19:55.316Z,35.67
2022-11-13T10:24:27.708Z,42.10
2022-11-13T10:29:14.682Z,36.17
2022-11-13T10:33:35.275Z,40.90
2022-11-13T10:38:02.127Z,41.53
2022-11-13T10:42:42.205Z,42.47
2022-11-13T10:52:54.345Z,43.70
2022-11-13T10:57:34.922Z,38.17
2022-11-13T11:02:22.553Z,48.00
2022-11-13T11:07:20.571Z,39.97
2022-11-13T11:11:59.651Z,31.73
2022-11-13T11:16:24.662Z,31.17
2022-11-13T11:20:55.041Z,29.87
2022-11-13T11:26:02.565Z,27.47
2022-11-13T11:30:28.737Z,31.30
2022-11-13T11:35:26.468Z,35.40
2022-11-13T11:39:46.800Z,33.87
2022-11-13T11:44:30.246Z,29.37
2022-11-13T11:48:51.586Z,31.33
2022-11-13T11:53:15.425Z,27.93
2022-11-13T11:57:50.614Z,28.47
2022-11-13T12:02:26.107Z,28.73
2022-11-13T12:06:52.752Z,30.20
2022-11-13T12:12:12.014Z,27.30
2022-11-13T12:16:44.119Z,30.13
2022-11-13T12:21:31.629Z,29.00
2022-11-13T12:26:44.108Z,27.60
2022-11-13T12:31:39.500Z,25.53
2022-11-13T12:36:01.267Z,25.70
2022-11-13T12:40:54.981Z,24.73
2022-11-13T12:45:36.805Z,22.33
2022-11-13T12:50:31.765Z,24.10
2022-11-13T12:55:29.216Z,23.53
2022-11-13T12:59:54.188Z,25.10
2022-11-13T13:04:39.448Z,24.13
2022-11-13T13:09:37.289Z,21.80
2022-11-13T13:14:26.671Z,27.23
2022-11-13T13:18:48.357Z,22.47
2022-11-13T13:23:12.987Z,22.03
2022-11-13T13:27:38.238Z,24.97
2022-11-13T13:33:02.952Z,23.13
2022-11-13T13:37:37.083Z,24.07
2022-11-13T13:42:17.354Z,21.53
2022-11-13T13:46:43.421Z,22.60
2022-11-13T13:51:29.732Z,25.80
2022-11-13T13:56:54.974Z,25.27
2022-11-13T14:01:36.172Z,23.40
2022-11-13T14:06:35.330Z,22.63
2022-11-13T14:11:47.819Z,25.23
2022-11-13T14:16:08.306Z,27.47
2022-11-13T14:20:28.540Z,24.80
2022-11-13T14:25:03.150Z,26.93
2022-11-13T14:29:47.171Z,25.13
2022-11-13T14:34:26.457Z,25.37
2022-11-13T14:38:51.985Z,26.40
2022-11-13T14:43:24.031Z,27.93
2022-11-13T14:48:05.980Z,29.30
2022-11-13T14:52:28.470Z,29.27
2022-11-13T14:56:48.843Z,22.77
2022-11-13T15:01:35.630Z,25.70
2022-11-13T15:06:16.011Z,32.70
2022-11-13T15:11:03.358Z,36.67
2022-11-13T15:15:36.095Z,38.87
2022-11-13T15:20:49.033Z,44.37
2022-11-13T15:25:14.213Z,46.60
2022-11-13T15:29:35.888Z,46.80
2022-11-13T15:34:57.049Z,52.73
2022-11-13T15:39:24.053Z,50.83
2022-11-13T15:43:49.930Z,48.33
2022-11-13T15:48:14.406Z,47.37
2022-11-13T15:52:42.804Z,58.03
2022-11-13T15:57:31.208Z,46.17
2022-11-13T16:02:04.123Z,61.83
2022-11-13T16:06:25.725Z,59.57
2022-11-13T16:10:46.034Z,59.83
2022-11-13T16:15:07.377Z,55.53
2022-11-13T16:19:29.140Z,58.53
2022-11-13T16:23:49.614Z,56.23
2022-11-13T16:28:19.554Z,50.73
2022-11-13T16:32:43.415Z,57.13
2022-11-13T16:37:14.215Z,47.83
2022-11-13T16:42:05.356Z,53.17
2022-11-13T16:46:45.935Z,53.27
2022-11-13T16:57:30.086Z,51.30
2022-11-13T17:01:55.088Z,57.83
2022-11-13T17:06:25.697Z,59.90
2022-11-13T17:10:45.967Z,55.60
2022-11-13T17:15:07.063Z,55.57
2022-11-13T17:19:27.820Z,55.07
2022-11-13T17:23:48.442Z,55.20
2022-11-13T17:28:19.931Z,56.70
2022-11-13T17:33:30.149Z,48.23
2022-11-13T17:37:51.503Z,56.77
2022-11-13T17:42:11.994Z,55.73
2022-11-13T17:46:32.572Z,51.00
2022-11-13T17:51:06.822Z,50.13
2022-11-13T17:55:27.139Z,56.17
2022-11-13T17:59:47.394Z,54.67
2022-11-13T18:04:07.978Z,57.20
2022-11-13T18:08:28.487Z,52.63
2022-11-13T18:19:14.072Z,52.57
2022-11-13T18:23:39.851Z,57.83
2022-11-13T18:28:00.493Z,54.80
2022-11-13T18:32:21.312Z,50.40
2022-11-13T18:36:41.981Z,46.67
2022-11-13T18:41:13.028Z,47.17
2022-11-13T18:45:35.610Z,46.03
2022-11-13T18:49:58.453Z,49.63
2022-11-13T18:54:43.927Z,44.83
2022-11-13T18:59:11.211Z,46.90
2022-11-13T19:03:31.627Z,45.60
2022-11-13T19:08:00.614Z,47.27
2022-11-13T19:12:48.007Z,39.80
2022-11-13T19:17:09.942Z,47.63
2022-11-13T19:21:56.922Z,51.20
2022-11-13T19:26:17.699Z,46.57
2022-11-13T19:30:47.614Z,40.43
2022-11-13T19:35:08.558Z,49.47
2022-11-13T19:39:29.455Z,41.40
2022-11-13T19:43:50.048Z,42.47
2022-11-13T19:48:16.144Z,39.67
2022-11-13T19:52:50.555Z,39.03
2022-11-13T19:57:15.517Z,45.63
2022-11-13T20:01:58.982Z,41.50
2022-11-13T20:06:19.827Z,39.37
2022-11-13T20:10:40.137Z,44.37
2022-11-13T20:15:06.975Z,41.80
2022-11-13T20:19:35.690Z,44.20
2022-11-13T20:24:26.390Z,50.67
2022-11-13T20:28:54.275Z,47.30
2022-11-13T20:33:19.805Z,44.67
2022-11-13T20:37:45.444Z,43.43
2022-11-13T20:42:05.857Z,51.57
2022-11-13T20:46:26.515Z,45.43
2022-11-13T20:50:49.460Z,49.93
2022-11-13T20:55:11.143Z,48.57
2022-11-13T21:00:28.907Z,46.27
2022-11-13T21:04:50.970Z,49.80
2022-11-13T21:09:11.674Z,55.80
2022-11-13T21:13:32.414Z,48.60
2022-11-13T21:18:06.276Z,53.73
2022-11-13T21:22:26.373Z,54.10
2022-11-13T21:27:05.559Z,59.37
2022-11-13T21:31:27.091Z,54.07
2022-11-13T21:35:47.948Z,47.67
2022-11-13T21:40:10.104Z,51.83
2022-11-13T21:45:12.023Z,58.93
2022-11-13T21:49:32.429Z,54.23
2022-11-13T21:54:06.775Z,56.63
2022-11-13T22:04:33.097Z,57.30
2022-11-13T22:09:02.917Z,49.10
2022-11-13T22:20:10.099Z,57.60
2022-11-13T22:24:35.151Z,58.10
2022-11-13T22:29:19.708Z,54.63
2022-11-13T22:33:45.044Z,56.70
2022-11-13T22:38:08.823Z,59.90
2022-11-13T22:42:31.498Z,56.17
2022-11-13T22:47:04.132Z,64.70
2022-11-13T22:51:29.884Z,58.93
2022-11-13T22:56:05.297Z,58.07
2022-11-13T23:00:26.396Z,55.17
2022-11-13T23:04:46.760Z,65.03
2022-11-13T23:09:07.453Z,62.03
2022-11-13T23:13:29.985Z,66.33
2022-11-13T23:17:50.661Z,60.63
2022-11-13T23:22:12.589Z,66.67
2022-11-13T23:27:23.806Z,61.57
2022-11-13T23:32:09.867Z,60.30
2022-11-13T23:36:36.599Z,72.63
2022-11-13T23:40:59.414Z,76.10
2022-11-13T23:45:20.029Z,60.83
2022-11-13T23:49:42.755Z,75.10
2022-11-13T23:54:27.028Z,74.73
2022-11-13T23:58:52.399Z,89.70
